Time;durP1;ratioP1;P1;durP2;ratioP2;P2;SDS_P1;SDS_P2;PMS_P1;PMS_P2;Temp;Humidity;BMP_temperature;BMP_pressure;BME280_temperature;BME280_humidity;BME280_pressure;Samples;Min_cycle;Max_cycle;Signal;HPM_P1;HPM_P2
2023/03/17 00:01:43;;;;;;;4.43;4.03;;;;;;;6.70;67.63;98468.38;4966036;28;102718;-58
2023/03/17 00:04:12;;;;;;;4.90;4.33;;;;;;;6.80;67.64;98464.22;4969072;28;102851;-58
2023/03/17 00:06:41;;;;;;;4.93;3.83;;;;;;;6.81;68.04;98459.81;4971197;28;103270;-58
2023/03/17 00:09:13;;;;;;;4.30;3.90;;;;;;;6.74;68.07;98453.25;4971934;28;103310;-59
2023/03/17 00:11:41;;;;;;;5.10;4.50;;;;;;;6.45;69.46;98446.28;4965996;28;103777;-58
2023/03/17 00:14:10;;;;;;;6.23;4.50;;;;;;;6.12;70.48;98439.47;4969173;28;102821;-59
2023/03/17 00:16:42;;;;;;;4.90;4.40;;;;;;;6.28;70.22;98429.78;4970769;28;103391;-58
2023/03/17 00:19:15;;;;;;;5.37;3.70;;;;;;;6.26;70.10;98433.44;4968785;28;103194;-58
2023/03/17 00:21:44;;;;;;;3.60;3.27;;;;;;;6.40;69.70;98426.41;4971681;28;102811;-59
2023/03/17 00:24:13;;;;;;;6.23;4.37;;;;;;;6.32;70.33;98420.78;4971220;28;102724;-59
2023/03/17 00:26:42;;;;;;;3.80;3.47;;;;;;;6.51;69.43;98420.53;4971973;28;102690;-59
2023/03/17 00:29:10;;;;;;;4.93;3.70;;;;;;;6.66;68.78;98419.59;4973049;28;103361;-59
2023/03/17 00:31:40;;;;;;;4.30;3.73;;;;;;;6.66;68.80;98418.75;4968344;28;102635;-58
2023/03/17 00:34:11;;;;;;;4.43;3.87;;;;;;;6.68;68.68;98416.88;4973473;28;102840;-58
2023/03/17 00:36:48;;;;;;;5.27;4.40;;;;;;;6.51;69.11;98410.03;4972376;28;104431;-58
2023/03/17 00:39:17;;;;;;;5.60;4.30;;;;;;;6.60;69.36;98419.09;4977562;28;103250;-58
2023/03/17 00:41:46;;;;;;;4.90;4.33;;;;;;;6.38;70.06;98423.03;4976953;28;102651;-58
2023/03/17 00:44:17;;;;;;;5.70;4.30;;;;;;;6.36;69.97;98406.56;4976118;28;103115;-58
2023/03/17 00:46:49;;;;;;;5.07;3.90;;;;;;;6.55;69.83;98405.44;4971001;28;104936;-58
2023/03/17 00:49:19;;;;;;;5.43;4.50;;;;;;;6.67;69.16;98417.81;4976140;28;103392;-58
2023/03/17 00:51:49;;;;;;;5.00;4.50;;;;;;;6.63;69.67;98403.16;4976618;28;102661;-59
2023/03/17 00:54:19;;;;;;;7.07;4.53;;;;;;;6.61;69.48;98405.06;4965837;28;104097;-59
2023/03/17 00:56:48;;;;;;;7.00;5.20;;;;;;;6.39;70.62;98401.13;4974124;28;103258;-59
2023/03/17 00:59:21;;;;;;;4.93;4.47;;;;;;;6.38;70.34;98404.66;4974662;28;103238;-58
2023/03/17 01:01:50;;;;;;;9.00;4.63;;;;;;;6.31;70.48;98390.25;4970394;28;102764;-58
2023/03/17 01:04:21;;;;;;;5.67;4.30;;;;;;;6.55;69.69;98389.69;4978468;28;103078;-59
2023/03/17 01:06:50;;;;;;;4.80;3.30;;;;;;;6.73;69.16;98385.94;4976011;28;104190;-59
2023/03/17 01:09:20;;;;;;;7.30;4.40;;;;;;;6.77;69.08;98388.28;4976748;28;103197;-58
2023/03/17 01:11:48;;;;;;;9.03;6.30;;;;;;;6.81;69.40;98381.06;4972012;28;102774;-58
2023/03/17 01:14:16;;;;;;;6.67;5.80;;;;;;;6.58;69.90;98381.63;4973405;28;102746;-58
2023/03/17 01:16:44;;;;;;;5.77;5.00;;;;;;;6.66;70.03;98376.75;4972514;28;104105;-58
2023/03/17 01:19:15;;;;;;;8.40;5.80;;;;;;;6.66;70.09;98380.22;4967182;28;103289;-59
2023/03/17 01:21:44;;;;;;;7.63;5.53;;;;;;;6.72;70.08;98376.38;4971107;28;102575;-58
2023/03/17 01:24:13;;;;;;;5.50;4.47;;;;;;;6.79;70.00;98377.69;4968065;28;102714;-58
2023/03/17 01:26:41;;;;;;;4.70;4.20;;;;;;;6.88;69.44;98371.84;4971008;28;103280;-58
2023/03/17 01:29:09;;;;;;;6.20;4.60;;;;;;;6.91;70.19;98371.66;4972164;28;103262;-58
2023/03/17 01:31:37;;;;;;;4.63;4.13;;;;;;;6.90;70.72;98373.47;4975777;28;103584;-58
2023/03/17 01:34:05;;;;;;;5.57;4.83;;;;;;;6.71;71.31;98372.06;4968813;28;102700;-58
2023/03/17 01:36:36;;;;;;;4.83;4.03;;;;;;;6.66;71.75;98371.50;4975977;28;103948;-59
2023/03/17 01:39:06;;;;;;;7.83;5.30;;;;;;;6.30;73.26;98370.19;4971625;28;103205;-58
2023/03/17 01:41:38;;;;;;;5.47;4.67;;;;;;;6.17;74.35;98358.75;4972589;28;103325;-59
2023/03/17 01:44:07;;;;;;;5.27;4.77;;;;;;;6.21;74.05;98357.59;4972647;28;103541;-59
2023/03/17 01:46:36;;;;;;;7.77;4.83;;;;;;;6.23;74.16;98363.59;4970678;28;103230;-58
2023/03/17 01:49:13;;;;;;;6.63;4.90;;;;;;;6.34;73.63;98353.28;4970249;28;103895;-58
2023/03/17 01:51:51;;;;;;;7.53;6.00;;;;;;;6.09;74.37;98350.47;4971381;28;103306;-58
2023/03/17 01:54:24;;;;;;;5.73;4.57;;;;;;;6.16;74.31;98356.19;4973807;28;104220;-58
2023/03/17 01:56:59;;;;;;;4.63;4.03;;;;;;;6.31;73.76;98350.88;4971973;28;104161;-58
2023/03/17 01:59:34;;;;;;;8.13;5.63;;;;;;;6.11;73.74;98346.00;4968045;28;103235;-58
2023/03/17 02:02:07;;;;;;;8.17;5.40;;;;;;;6.16;73.45;98349.19;4970447;28;102760;-59
2023/03/17 02:04:37;;;;;;;7.20;5.53;;;;;;;6.32;72.20;98342.06;4970272;28;104681;-59
2023/03/17 02:07:07;;;;;;;8.23;6.00;;;;;;;6.28;72.25;98345.81;4983852;28;103311;-59
2023/03/17 02:09:37;;;;;;;8.30;5.77;;;;;;;6.13;72.46;98344.09;4971684;28;103187;-59
2023/03/17 02:12:08;;;;;;;11.00;5.60;;;;;;;6.17;72.19;98350.88;4972246;28;102772;-58
2023/03/17 02:14:38;;;;;;;8.50;5.97;;;;;;;6.22;71.95;98351.44;4968167;28;103482;-58
2023/03/17 02:17:06;;;;;;;6.40;4.60;;;;;;;6.50;71.32;98355.00;4970135;28;103433;-58
2023/03/17 02:19:34;;;;;;;6.67;4.07;;;;;;;6.63;70.60;98350.66;4970544;28;103315;-59
2023/03/17 02:22:04;;;;;;;4.90;4.07;;;;;;;6.64;70.87;98345.34;4972800;28;102751;-59
2023/03/17 02:24:37;;;;;;;8.83;6.10;;;;;;;6.55;71.29;98343.28;4974376;28;102805;-59
2023/03/17 02:27:10;;;;;;;7.77;5.80;;;;;;;6.37;72.07;98336.56;4966509;28;103227;-59
2023/03/17 02:29:39;;;;;;;7.73;5.70;;;;;;;6.14;72.74;98345.81;4973442;28;103191;-58
2023/03/17 02:32:09;;;;;;;6.40;5.20;;;;;;;6.18;73.19;98354.31;4969430;28;102929;-59
2023/03/17 02:34:37;;;;;;;6.87;5.47;;;;;;;6.25;72.76;98356.50;4970543;28;102819;-58
2023/03/17 02:37:07;;;;;;;7.03;5.53;;;;;;;5.96;73.78;98354.75;4968485;28;103805;-58
2023/03/17 02:39:36;;;;;;;6.70;5.73;;;;;;;6.00;73.76;98348.41;4972534;28;103230;-58
2023/03/17 02:42:05;;;;;;;6.37;5.10;;;;;;;6.09;73.62;98339.97;4967170;28;102802;-58
2023/03/17 02:44:34;;;;;;;8.73;5.70;;;;;;;6.21;72.90;98344.50;4971548;28;102853;-58
2023/03/17 02:47:03;;;;;;;7.03;6.00;;;;;;;6.23;72.59;98345.22;4974166;28;103220;-59
2023/03/17 02:49:32;;;;;;;7.43;5.57;;;;;;;6.34;72.16;98344.59;4969216;28;103204;-59
2023/03/17 02:52:01;;;;;;;6.93;5.27;;;;;;;6.41;71.79;98336.25;4970468;28;102949;-58
2023/03/17 02:54:31;;;;;;;6.60;4.90;;;;;;;6.47;71.83;98326.31;4973628;28;103190;-59
2023/03/17 02:56:59;;;;;;;6.13;4.83;;;;;;;6.59;71.54;98330.81;4966465;28;103863;-59
2023/03/17 02:59:27;;;;;;;6.77;5.07;;;;;;;6.58;71.90;98329.97;4973763;28;103213;-59
2023/03/17 03:01:56;;;;;;;5.80;4.83;;;;;;;6.66;71.23;98329.50;4966241;28;102699;-59
2023/03/17 03:04:25;;;;;;;6.70;4.50;;;;;;;6.66;71.79;98324.22;4974743;28;102889;-59
2023/03/17 03:06:54;;;;;;;6.67;5.10;;;;;;;6.73;71.05;98329.03;4968397;28;103267;-58
2023/03/17 03:09:23;;;;;;;6.10;4.97;;;;;;;6.73;71.43;98333.44;4966552;28;103212;-59
2023/03/17 03:11:52;;;;;;;6.80;4.53;;;;;;;6.80;70.87;98327.69;4974259;28;102651;-59
2023/03/17 03:14:20;;;;;;;5.80;4.73;;;;;;;6.78;70.95;98324.31;4971406;28;103155;-58
2023/03/17 03:16:48;;;;;;;5.93;4.80;;;;;;;6.77;71.33;98316.53;4968803;28;103201;-59
2023/03/17 03:19:16;;;;;;;7.93;5.93;;;;;;;6.71;71.47;98322.19;4974125;28;103364;-59
2023/03/17 03:21:44;;;;;;;6.80;5.10;;;;;;;6.73;70.99;98326.41;4974092;28;102770;-59
2023/03/17 03:24:13;;;;;;;6.50;5.70;;;;;;;6.70;71.23;98317.88;4972702;28;104230;-59
2023/03/17 03:26:41;;;;;;;5.20;4.70;;;;;;;6.64;71.51;98315.63;4970649;28;103272;-59
2023/03/17 03:29:10;;;;;;;6.80;4.33;;;;;;;6.69;70.95;98317.03;4971276;28;103216;-58
2023/03/17 03:31:38;;;;;;;8.37;5.27;;;;;;;6.68;71.05;98323.19;4966049;28;102792;-59
2023/03/17 03:34:06;;;;;;;5.37;4.50;;;;;;;6.69;71.17;98331.91;4971604;28;102839;-64
2023/03/17 03:36:34;;;;;;;6.63;5.10;;;;;;;6.65;71.44;98325.19;4973832;28;103354;-64
2023/03/17 03:39:02;;;;;;;5.83;4.60;;;;;;;6.65;71.26;98322.56;4971425;28;103206;-64
2023/03/17 03:41:30;;;;;;;6.93;5.53;;;;;;;6.73;70.46;98309.81;4969652;28;102654;-64
2023/03/17 03:43:57;;;;;;;7.30;5.10;;;;;;;6.68;70.56;98317.94;4970150;28;104139;-64
2023/03/17 03:46:27;;;;;;;8.93;5.80;;;;;;;6.59;71.16;98317.69;4966847;28;104079;-64
2023/03/17 03:48:55;;;;;;;6.23;5.17;;;;;;;6.57;71.22;98316.97;4970276;28;102640;-62
2023/03/17 03:51:23;;;;;;;11.53;5.93;;;;;;;6.45;71.30;98326.44;4972892;28;102650;-63
2023/03/17 03:53:51;;;;;;;7.13;5.60;;;;;;;6.41;71.82;98328.38;4970990;28;103974;-63
2023/03/17 03:56:19;;;;;;;7.60;6.80;;;;;;;6.52;71.16;98326.88;4971298;28;103120;-63
2023/03/17 03:58:47;;;;;;;6.57;5.43;;;;;;;6.56;71.04;98328.38;4971000;28;103365;-64
2023/03/17 04:01:15;;;;;;;6.10;5.50;;;;;;;6.59;70.56;98322.94;4968622;28;102607;-63
2023/03/17 04:03:46;;;;;;;5.67;4.90;;;;;;;6.59;70.58;98317.69;4968686;28;103127;-63
2023/03/17 04:06:15;;;;;;;5.80;5.07;;;;;;;6.52;70.98;98321.63;4969717;28;104114;-63
2023/03/17 04:08:43;;;;;;;8.33;6.40;;;;;;;6.46;70.92;98322.03;4975609;28;103188;-63
2023/03/17 04:11:11;;;;;;;7.97;5.40;;;;;;;6.49;70.95;98321.81;4972451;28;102698;-63
2023/03/17 04:13:39;;;;;;;5.70;4.70;;;;;;;6.50;70.82;98318.25;4977466;28;103632;-63
2023/03/17 04:16:07;;;;;;;6.87;4.90;;;;;;;6.40;71.39;98313.56;4973787;28;104232;-63
2023/03/17 04:18:35;;;;;;;7.37;5.53;;;;;;;6.41;70.82;98309.16;4972719;28;103034;-64
2023/03/17 04:21:05;;;;;;;5.37;4.87;;;;;;;6.33;71.29;98312.28;4974867;28;102666;-64
2023/03/17 04:23:34;;;;;;;6.70;4.87;;;;;;;6.34;71.30;98319.19;4972886;28;104547;-64
2023/03/17 04:26:02;;;;;;;5.37;4.50;;;;;;;6.41;71.17;98317.91;4974148;28;103302;-63
2023/03/17 04:28:31;;;;;;;7.07;4.63;;;;;;;6.46;70.90;98301.03;4976614;28;103240;-64
2023/03/17 04:30:59;;;;;;;8.57;5.53;;;;;;;6.39;70.92;98305.81;4972324;28;102884;-64
2023/03/17 04:33:27;;;;;;;7.70;5.80;;;;;;;6.37;71.16;98305.88;4972248;28;102686;-63
2023/03/17 04:35:55;;;;;;;7.37;5.97;;;;;;;6.29;71.73;98307.28;4970132;28;103864;-63
2023/03/17 04:38:25;;;;;;;8.20;5.97;;;;;;;6.18;72.20;98302.69;4973566;28;104087;-64
2023/03/17 04:40:52;;;;;;;9.37;6.27;;;;;;;6.20;72.10;98306.06;4971678;28;102753;-64
2023/03/17 04:43:21;;;;;;;7.43;6.27;;;;;;;6.26;71.62;98300.44;4974826;28;102970;-64
2023/03/17 04:45:48;;;;;;;6.33;4.80;;;;;;;6.29;71.80;98294.16;4965465;28;103203;-63
2023/03/17 04:48:16;;;;;;;9.70;8.70;;;;;;;6.30;71.74;98301.97;4971208;28;103213;-63
2023/03/17 04:50:46;;;;;;;6.90;6.20;;;;;;;6.21;72.21;98301.66;4973643;28;102648;-63
2023/03/17 04:53:14;;;;;;;11.00;6.53;;;;;;;6.17;72.00;98301.03;4977404;28;102787;-63
2023/03/17 04:55:43;;;;;;;7.47;5.67;;;;;;;6.25;71.84;98292.69;4968425;28;103157;-63
2023/03/17 04:58:11;;;;;;;6.83;4.80;;;;;;;6.30;71.78;98291.47;4971756;28;103865;-62
2023/03/17 05:00:54;;;;;;;6.77;5.27;;;;;;;6.26;71.96;98289.97;4970726;28;102784;-64
2023/03/17 05:03:26;;;;;;;8.20;5.23;;;;;;;6.33;71.55;98287.81;4974165;28;103523;-63
2023/03/17 05:05:55;;;;;;;5.60;4.93;;;;;;;6.33;71.53;98290.44;4969634;28;103202;-63
2023/03/17 05:08:23;;;;;;;6.53;4.70;;;;;;;6.33;71.39;98288.66;4970772;28;103036;-63
2023/03/17 05:10:52;;;;;;;7.10;5.47;;;;;;;6.33;71.30;98282.56;4972829;28;102927;-63
2023/03/17 05:13:20;;;;;;;6.77;5.00;;;;;;;6.32;71.81;98279.09;4969376;28;102832;-63
2023/03/17 05:15:50;;;;;;;7.17;6.07;;;;;;;6.22;71.89;98277.13;4974942;28;103317;-63
2023/03/17 05:18:19;;;;;;;6.80;5.70;;;;;;;6.03;72.51;98282.66;4974545;28;103202;-63
2023/03/17 05:20:47;;;;;;;6.67;5.93;;;;;;;6.07;72.42;98278.91;4974155;28;102677;-63
2023/03/17 05:23:15;;;;;;;9.17;6.33;;;;;;;6.04;72.22;98284.34;4965298;28;104508;-63
2023/03/17 05:25:44;;;;;;;7.23;5.70;;;;;;;5.82;73.37;98279.50;4967927;28;104040;-63
2023/03/17 05:28:13;;;;;;;6.23;5.10;;;;;;;6.01;72.84;98286.28;4949051;28;103356;-63
2023/03/17 05:30:42;;;;;;;8.90;6.53;;;;;;;5.84;73.33;98287.28;4965805;28;103040;-63
2023/03/17 05:33:10;;;;;;;6.67;6.03;;;;;;;5.99;72.93;98296.03;4968196;28;102746;-63
2023/03/17 05:35:39;;;;;;;6.90;5.57;;;;;;;5.81;73.50;98292.72;4968695;28;104528;-63
2023/03/17 05:38:07;;;;;;;10.37;6.70;;;;;;;5.78;73.59;98295.53;4967457;28;104436;-63
2023/03/17 05:40:35;;;;;;;7.00;6.30;;;;;;;5.73;73.46;98302.78;4974408;28;103256;-62
2023/03/17 05:43:04;;;;;;;8.77;6.07;;;;;;;5.58;74.97;98306.34;4975788;28;103604;-62
2023/03/17 05:45:34;;;;;;;8.53;6.40;;;;;;;5.31;74.93;98302.66;4976855;28;103203;-62
2023/03/17 05:48:03;;;;;;;8.57;7.00;;;;;;;5.26;75.88;98298.56;4970727;28;103221;-62
2023/03/17 05:50:31;;;;;;;6.53;5.57;;;;;;;5.33;75.69;98300.81;4971522;28;102747;-63
2023/03/17 05:52:59;;;;;;;8.43;6.20;;;;;;;5.29;75.76;98294.91;4971501;28;102636;-62
2023/03/17 05:55:27;;;;;;;12.20;6.80;;;;;;;5.35;75.90;98289.31;4973832;28;103197;-61
2023/03/17 05:57:55;;;;;;;8.27;6.57;;;;;;;5.40;75.17;98286.44;4969954;28;103356;-62
2023/03/17 06:00:27;;;;;;;8.33;6.63;;;;;;;5.28;75.73;98283.59;4973674;28;102710;-62
2023/03/17 06:02:57;;;;;;;9.57;6.80;;;;;;;5.25;76.25;98283.75;4975439;28;103525;-62
2023/03/17 06:05:26;;;;;;;7.27;6.47;;;;;;;5.42;75.89;98289.81;4973553;28;104119;-62
2023/03/17 06:07:53;;;;;;;8.23;6.13;;;;;;;5.71;75.00;98297.66;4975024;28;103222;-62
2023/03/17 06:10:23;;;;;;;8.37;6.90;;;;;;;5.72;74.56;98288.03;4974982;28;102782;-62
2023/03/17 06:12:51;;;;;;;8.23;6.67;;;;;;;5.60;75.81;98288.72;4968520;28;104125;-61
2023/03/17 06:15:20;;;;;;;9.63;7.23;;;;;;;5.56;75.82;98289.84;4971161;28;103034;-62
2023/03/17 06:17:48;;;;;;;8.87;7.37;;;;;;;5.57;75.76;98294.16;4967602;28;103207;-62
2023/03/17 06:20:18;;;;;;;8.63;7.30;;;;;;;5.82;75.25;98300.47;4973184;28;103043;-61
2023/03/17 06:22:45;;;;;;;9.27;6.73;;;;;;;6.05;74.31;98307.00;4972798;28;104046;-62
2023/03/17 06:25:30;;;;;;;7.80;5.80;;;;;;;6.20;73.29;98300.81;4966135;28;103232;-61
2023/03/17 06:28:01;;;;;;;9.03;6.80;;;;;;;6.23;73.46;98300.63;4964336;28;103206;-62
2023/03/17 06:30:31;;;;;;;8.83;6.30;;;;;;;6.28;73.04;98303.00;4963105;28;102815;-62
2023/03/17 06:32:59;;;;;;;10.77;7.00;;;;;;;6.20;73.33;98311.31;4966330;28;104182;-62
2023/03/17 06:35:29;;;;;;;8.07;6.50;;;;;;;6.41;72.47;98310.03;4964100;28;104064;-62
2023/03/17 06:37:57;;;;;;;13.07;6.77;;;;;;;6.45;72.44;98300.19;4966509;28;103164;-62
2023/03/17 06:40:25;;;;;;;8.73;6.67;;;;;;;6.58;72.14;98300.25;4969495;28;102624;-62
2023/03/17 06:42:53;;;;;;;9.27;7.03;;;;;;;6.42;72.54;98300.38;4970623;28;102563;-62
2023/03/17 06:45:21;;;;;;;8.30;6.87;;;;;;;6.56;72.39;98291.63;4969880;28;103333;-62
2023/03/17 06:47:50;;;;;;;8.53;5.80;;;;;;;6.69;71.67;98287.28;4969134;28;103232;-62
2023/03/17 06:50:18;;;;;;;12.77;8.57;;;;;;;6.61;71.56;98286.94;4968842;28;102884;-61
2023/03/17 06:52:47;;;;;;;16.23;10.13;;;;;;;6.72;71.43;98287.09;4970210;28;103317;-62
2023/03/17 06:55:16;;;;;;;19.20;9.63;;;;;;;6.89;71.08;98284.25;4965080;28;103252;-62
2023/03/17 06:57:44;;;;;;;14.13;9.20;;;;;;;6.80;71.36;98288.31;4965520;28;103314;-61
2023/03/17 07:00:14;;;;;;;11.07;8.43;;;;;;;7.05;70.79;98289.34;4966776;28;102692;-62
2023/03/17 07:02:43;;;;;;;11.40;8.23;;;;;;;7.15;70.88;98288.69;4970917;28;103041;-62
2023/03/17 07:05:12;;;;;;;8.13;7.23;;;;;;;7.44;69.76;98295.47;4966893;28;103999;-62
2023/03/17 07:07:41;;;;;;;7.60;6.10;;;;;;;7.77;69.13;98294.19;4969800;28;103186;-62
2023/03/17 07:10:12;;;;;;;11.93;8.47;;;;;;;7.65;68.53;98295.00;4968930;28;102796;-62
2023/03/17 07:12:40;;;;;;;7.70;6.90;;;;;;;8.08;68.07;98299.88;4969423;28;102832;-61
2023/03/17 07:15:09;;;;;;;10.93;7.33;;;;;;;8.41;66.98;98299.41;4962152;28;103186;-62
2023/03/17 07:17:41;;;;;;;24.03;18.00;;;;;;;8.38;66.72;98304.03;4966989;28;104439;-62
2023/03/17 07:20:10;;;;;;;10.47;8.27;;;;;;;8.67;66.66;98302.84;4966525;28;102766;-62
2023/03/17 07:22:38;;;;;;;8.07;6.73;;;;;;;8.60;65.41;98294.53;4968464;28;102787;-62
2023/03/17 07:25:08;;;;;;;6.43;5.70;;;;;;;8.92;64.46;98294.88;4964060;28;103271;-62
2023/03/17 07:27:37;;;;;;;6.73;5.57;;;;;;;9.02;63.48;98302.94;4968125;28;103197;-61
2023/03/17 07:30:07;;;;;;;7.77;5.70;;;;;;;9.16;63.15;98297.53;4971772;28;102739;-62
2023/03/17 07:32:35;;;;;;;7.47;5.13;;;;;;;9.31;62.68;98296.41;4966072;28;102855;-62
2023/03/17 07:35:03;;;;;;;6.70;5.10;;;;;;;8.78;62.08;98305.56;4967409;28;103205;-62
2023/03/17 07:37:31;;;;;;;8.03;5.00;;;;;;;9.23;62.18;98298.78;4969065;28;103218;-62
2023/03/17 07:40:00;;;;;;;10.53;9.20;;;;;;;9.55;61.13;98293.75;4969796;28;102805;-62
2023/03/17 07:42:28;;;;;;;16.40;13.50;;;;;;;9.71;60.70;98304.84;4975829;28;102652;-62
2023/03/17 07:44:58;;;;;;;8.13;6.17;;;;;;;9.76;59.94;98295.63;4973577;28;103232;-62
2023/03/17 07:47:26;;;;;;;7.17;5.80;;;;;;;10.33;59.61;98294.81;4970355;28;103198;-62
2023/03/17 07:49:54;;;;;;;8.20;5.93;;;;;;;10.25;59.00;98294.53;4960807;28;103652;-62
2023/03/17 07:52:22;;;;;;;6.87;5.60;;;;;;;10.03;58.64;98287.41;4970175;28;102707;-62
2023/03/17 07:54:50;;;;;;;9.97;5.37;;;;;;;10.17;58.29;98283.75;4971322;28;103270;-62
2023/03/17 07:57:18;;;;;;;9.73;5.70;;;;;;;10.24;57.24;98284.97;4975763;28;103240;-62
2023/03/17 07:59:46;;;;;;;6.57;4.97;;;;;;;10.61;56.84;98281.09;4976459;28;102697;-62
2023/03/17 08:02:18;;;;;;;6.33;5.10;;;;;;;10.94;56.73;98281.09;4974790;28;103085;-62
2023/03/17 08:04:46;;;;;;;5.90;4.70;;;;;;;11.33;55.30;98270.88;4967540;28;104499;-62
2023/03/17 08:07:17;;;;;;;6.03;4.53;;;;;;;11.47;55.24;98278.53;4975643;28;103001;-62
2023/03/17 08:09:46;;;;;;;9.30;4.83;;;;;;;10.82;55.02;98276.78;4966934;28;102753;-62
2023/03/17 08:12:18;;;;;;;5.70;5.10;;;;;;;11.67;54.26;98272.44;4973459;28;102697;-62
2023/03/17 08:14:47;;;;;;;7.40;4.90;;;;;;;12.05;53.08;98283.31;4974969;28;103249;-62
2023/03/17 08:17:16;;;;;;;6.63;4.97;;;;;;;12.99;51.86;98280.38;4971053;28;104182;-62
2023/03/17 08:19:45;;;;;;;7.27;5.13;;;;;;;13.16;51.49;98277.09;4973590;28;102661;-62
2023/03/17 08:22:13;;;;;;;6.37;5.27;;;;;;;13.00;52.94;98275.91;4969123;28;102736;-62
2023/03/17 08:24:41;;;;;;;8.80;5.80;;;;;;;13.00;51.36;98268.78;4974805;28;103258;-62
2023/03/17 08:27:10;;;;;;;8.23;5.83;;;;;;;12.59;50.87;98263.63;4972474;28;103305;-63
2023/03/17 08:29:37;;;;;;;8.43;5.83;;;;;;;13.16;50.00;98263.84;4970091;28;102760;-62
2023/03/17 08:32:06;;;;;;;7.60;5.60;;;;;;;13.25;51.09;98264.81;4969332;28;102810;-63
2023/03/17 08:34:36;;;;;;;6.47;5.47;;;;;;;12.67;49.63;98269.09;4960384;28;104271;-63
2023/03/17 08:37:05;;;;;;;7.97;4.97;;;;;;;13.46;49.99;98264.69;4974867;28;103285;-62
2023/03/17 08:39:35;;;;;;;5.73;4.53;;;;;;;13.70;50.53;98257.97;4973052;28;102907;-63
2023/03/17 08:42:04;;;;;;;7.60;5.20;;;;;;;13.29;48.89;98256.44;4974274;28;103917;-63
2023/03/17 08:44:33;;;;;;;5.23;4.10;;;;;;;14.21;49.65;98254.97;4975507;28;103380;-62
2023/03/17 08:47:01;;;;;;;7.40;5.00;;;;;;;14.25;48.27;98248.38;4973357;28;103184;-63
2023/03/17 08:49:29;;;;;;;7.27;4.40;;;;;;;14.81;47.01;98247.50;4971102;28;103860;-63
2023/03/17 08:51:59;;;;;;;6.13;4.87;;;;;;;14.20;48.81;98249.81;4971126;28;102735;-62
2023/03/17 08:54:28;;;;;;;5.93;4.73;;;;;;;14.95;47.53;98244.34;4976215;28;103293;-63
2023/03/17 08:56:55;;;;;;;6.30;3.67;;;;;;;15.44;47.06;98243.00;4972657;28;103243;-63
2023/03/17 08:59:26;;;;;;;9.83;4.37;;;;;;;15.63;44.80;98240.22;4975266;28;102788;-63
2023/03/17 09:01:54;;;;;;;5.43;3.47;;;;;;;15.76;43.79;98231.84;4976484;28;102961;-63
2023/03/17 09:04:22;;;;;;;5.90;3.60;;;;;;;16.00;43.81;98238.19;4973031;28;104116;-63
2023/03/17 09:06:50;;;;;;;5.23;3.17;;;;;;;16.13;42.37;98235.13;4973046;28;102954;-63
2023/03/17 09:09:33;;;;;;;5.20;3.23;;;;;;;16.68;41.15;98236.44;4977275;28;102677;-63
2023/03/17 09:12:03;;;;;;;3.40;2.90;;;;;;;16.35;41.14;98231.06;4976253;28;103454;-63
2023/03/17 09:14:32;;;;;;;4.40;3.07;;;;;;;16.93;41.62;98220.53;4976392;28;103060;-63
2023/03/17 09:17:10;;;;;;;6.20;3.20;;;;;;;17.09;42.05;98220.59;4975957;28;103202;-63
2023/03/17 09:19:39;;;;;;;3.40;3.10;;;;;;;17.81;40.17;98226.03;4975075;28;102653;-62
2023/03/17 09:22:07;;;;;;;5.30;2.50;;;;;;;18.06;40.66;98223.34;4966420;28;103043;-63
2023/03/17 09:24:36;;;;;;;6.63;3.33;;;;;;;16.88;40.03;98223.69;4970501;28;104264;-63
2023/03/17 09:27:05;;;;;;;5.87;2.90;;;;;;;17.02;40.27;98219.56;4971903;28;103167;-63
2023/03/17 09:29:33;;;;;;;6.05;3.38;;;;;;;16.28;41.80;98220.19;4976333;28;103007;-63
2023/03/17 09:32:02;;;;;;;4.97;2.70;;;;;;;16.45;42.28;98213.97;4977977;28;102601;-63
2023/03/17 09:34:31;;;;;;;5.78;3.47;;;;;;;16.41;40.85;98217.97;4971946;28;104033;-63
2023/03/17 09:36:59;;;;;;;6.22;3.63;;;;;;;16.53;41.12;98227.38;4975697;28;103155;-63
2023/03/17 09:39:27;;;;;;;6.88;3.63;;;;;;;16.31;41.21;98227.88;4974925;28;102723;-64
2023/03/17 09:42:18;;;;;;;4.10;3.42;;;;;;;16.43;39.93;98231.97;4971376;28;102731;-63
2023/03/17 09:44:58;;;;;;;3.40;2.58;;;;;;;17.26;40.95;98220.44;4967681;28;103452;-62
2023/03/17 09:47:48;;;;;;;7.35;3.63;;;;;;;17.05;40.25;98219.22;4993475;28;113624;-63
2023/03/17 09:50:25;;;;;;;7.07;3.15;;;;;;;17.68;39.72;98225.72;4994049;28;102675;-63
2023/03/17 09:52:57;;;;;;;6.22;2.70;;;;;;;18.09;37.78;98225.69;4994305;28;102863;-64
2023/03/17 09:55:28;;;;;;;4.10;2.53;;;;;;;17.85;39.49;98216.66;4996768;28;103653;-64
2023/03/17 09:58:02;;;;;;;3.55;2.60;;;;;;;18.18;39.72;98222.00;4992823;28;103451;-63
2023/03/17 10:00:31;;;;;;;4.20;3.20;;;;;;;17.44;37.52;98222.97;4997298;28;102705;-64
2023/03/17 10:03:01;;;;;;;4.38;2.88;;;;;;;16.62;39.16;98225.56;4991513;28;102959;-63
2023/03/17 10:05:31;;;;;;;5.03;3.10;;;;;;;17.10;37.77;98222.25;4989007;28;103456;-64
2023/03/17 10:08:09;;;;;;;5.72;2.95;;;;;;;17.46;38.68;98220.97;4994999;28;103915;-63
2023/03/17 10:11:02;;;;;;;4.38;2.25;;;;;;;18.17;37.29;98209.63;4992056;28;102670;-64
2023/03/17 10:13:45;;;;;;;3.80;2.15;;;;;;;18.66;35.91;98207.69;4988420;28;102927;-64
2023/03/17 10:16:16;;;;;;;3.17;2.22;;;;;;;18.40;37.70;98210.56;5009587;28;104517;-64
2023/03/17 10:18:53;;;;;;;2.60;2.20;;;;;;;18.65;37.91;98208.69;4990437;28;103259;-63
2023/03/17 10:21:25;;;;;;;6.60;2.08;;;;;;;18.19;35.17;98194.25;4994786;28;102952;-63
2023/03/17 10:23:55;;;;;;;3.60;1.70;;;;;;;18.42;37.33;98187.16;4989366;28;104020;-64
2023/03/17 10:26:30;;;;;;;3.55;1.90;;;;;;;18.44;39.03;98179.81;4991699;28;103341;-63
2023/03/17 10:29:02;;;;;;;4.22;2.35;;;;;;;18.06;36.92;98188.59;4995340;28;102980;-63
2023/03/17 10:31:33;;;;;;;4.60;1.90;;;;;;;18.27;36.58;98186.22;4991989;28;103297;-64
2023/03/17 10:34:13;;;;;;;4.53;2.00;;;;;;;18.43;36.44;98178.13;4991680;28;103098;-64
2023/03/17 10:36:46;;;;;;;2.78;1.77;;;;;;;18.11;37.22;98181.72;4991806;28;103566;-64
2023/03/17 10:39:18;;;;;;;4.60;1.90;;;;;;;18.23;37.80;98182.22;4993738;28;103755;-64
2023/03/17 10:41:56;;;;;;;2.10;1.88;;;;;;;18.57;38.63;98180.13;4991067;28;102680;-64
2023/03/17 10:44:43;;;;;;;2.75;1.65;;;;;;;18.77;38.25;98165.31;4993640;28;102848;-64
2023/03/17 10:47:29;;;;;;;2.50;1.90;;;;;;;18.13;36.51;98165.53;4993492;28;103237;-64
2023/03/17 10:49:58;;;;;;;2.63;1.77;;;;;;;18.45;37.66;98165.41;4990229;28;103362;-64
2023/03/17 10:52:29;;;;;;;4.07;2.00;;;;;;;18.80;36.24;98181.03;4994041;28;103085;-64
2023/03/17 10:55:02;;;;;;;3.67;1.65;;;;;;;18.47;35.98;98171.44;4995802;28;102571;-63
2023/03/17 10:57:31;;;;;;;3.85;1.60;;;;;;;18.35;34.42;98170.16;4994220;28;103856;-63
2023/03/17 11:00:03;;;;;;;1.73;1.33;;;;;;;19.21;35.89;98172.75;4992088;28;103317;-64
2023/03/17 11:02:43;;;;;;;3.90;1.48;;;;;;;19.46;35.61;98159.03;4988033;28;102812;-64
2023/03/17 11:05:19;;;;;;;3.03;1.65;;;;;;;20.01;34.49;98158.72;4989000;28;102618;-64
2023/03/17 11:07:47;;;;;;;3.40;1.52;;;;;;;19.96;34.86;98150.38;4992038;28;104048;-64
2023/03/17 11:10:19;;;;;;;2.88;1.80;;;;;;;19.87;35.52;98154.19;4992689;28;103342;-64
2023/03/17 11:12:50;;;;;;;3.35;1.88;;;;;;;20.02;35.58;98151.50;4987756;28;102664;-64
2023/03/17 11:15:19;;;;;;;4.20;2.58;;;;;;;19.05;34.70;98142.41;4991812;28;102578;-64
2023/03/17 11:17:55;;;;;;;4.05;2.00;;;;;;;19.55;36.60;98149.09;4988864;28;103236;-64
2023/03/17 11:20:44;;;;;;;2.65;1.77;;;;;;;20.10;35.26;98130.78;4993147;28;103176;-64
2023/03/17 11:23:22;;;;;;;3.10;1.70;;;;;;;20.29;36.47;98136.66;4989391;28;102706;-64
2023/03/17 11:26:01;;;;;;;2.10;1.55;;;;;;;19.91;35.37;98127.81;4991949;28;103044;-64
2023/03/17 11:28:35;;;;;;;5.38;1.80;;;;;;;20.04;33.99;98128.03;4993386;28;103272;-64
2023/03/17 11:31:11;;;;;;;1.70;1.60;;;;;;;19.98;35.12;98124.25;4990641;28;103075;-65
2023/03/17 11:33:48;;;;;;;1.65;1.55;;;;;;;20.26;34.84;98129.00;4991783;28;102947;-64
2023/03/17 11:36:30;;;;;;;2.70;1.73;;;;;;;20.64;34.49;98109.03;4993810;28;102624;-64
2023/03/17 11:39:04;;;;;;;1.80;1.45;;;;;;;20.21;32.92;98106.19;4990422;28;104773;-64
2023/03/17 11:41:44;;;;;;;3.10;1.38;;;;;;;20.64;34.65;98103.69;4994693;28;103199;-64
2023/03/17 11:44:45;;;;;;;1.50;1.17;;;;;;;20.54;33.65;98104.00;4995825;28;102696;-64